Time;durP1;ratioP1;P1;durP2;ratioP2;P2;SDS_P1;SDS_P2;PMS_P1;PMS_P2;Temp;Humidity;BMP_temperature;BMP_pressure;BME280_temperature;BME280_humidity;BME280_pressure;Samples;Min_cycle;Max_cycle;Signal;HPM_P1;HPM_P2
2022/02/16 00:01:29;;;;;;;0.55;0.55;;;2.00;99.90;;;;;;5036202;28;20197;-77
2022/02/16 00:03:54;;;;;;;0.60;0.60;;;1.90;99.90;;;;;;5055015;28;20201;-78
2022/02/16 00:06:20;;;;;;;0.73;0.73;;;1.90;99.90;;;;;;5053040;28;20205;-79
2022/02/16 00:09:10;;;;;;;0.82;0.82;;;1.90;99.90;;;;;;5040045;28;20742;-77
2022/02/16 00:11:36;;;;;;;0.60;0.60;;;1.90;99.90;;;;;;5053247;28;20202;-77
2022/02/16 00:14:02;;;;;;;0.50;0.50;;;1.90;99.90;;;;;;5036505;28;20213;-77
2022/02/16 00:16:28;;;;;;;0.60;0.60;;;1.80;99.90;;;;;;5035620;28;20341;-77
2022/02/16 00:18:53;;;;;;;0.68;0.68;;;1.80;99.90;;;;;;5036168;28;20608;-77
2022/02/16 00:21:19;;;;;;;0.50;0.50;;;1.80;99.90;;;;;;5036088;28;20676;-78
2022/02/16 00:23:45;;;;;;;0.60;0.60;;;1.80;99.90;;;;;;5037427;28;20223;-77
2022/02/16 00:26:10;;;;;;;0.68;0.68;;;1.80;99.90;;;;;;5036215;28;20252;-77
2022/02/16 00:28:36;;;;;;;0.60;0.60;;;1.70;99.90;;;;;;5037052;28;20289;-77
2022/02/16 00:31:05;;;;;;;0.63;0.63;;;1.80;99.90;;;;;;5036095;28;20279;-77
2022/02/16 00:33:31;;;;;;;0.60;0.60;;;1.70;99.90;;;;;;5052281;28;20615;-76
2022/02/16 00:35:56;;;;;;;0.60;0.60;;;1.70;99.90;;;;;;5036095;28;20205;-77
2022/02/16 00:38:22;;;;;;;0.70;0.70;;;1.70;99.90;;;;;;5035777;28;20201;-77
2022/02/16 00:40:48;;;;;;;0.60;0.60;;;1.70;99.90;;;;;;5036096;28;20197;-77
2022/02/16 00:43:13;;;;;;;6.72;2.75;;;1.70;99.90;;;;;;5034606;28;20585;-77
2022/02/16 00:45:39;;;;;;;0.70;0.70;;;1.70;99.90;;;;;;5035597;28;20236;-78
2022/02/16 00:48:05;;;;;;;0.60;0.60;;;1.60;99.90;;;;;;5035594;28;20225;-78
2022/02/16 00:50:30;;;;;;;0.55;0.55;;;1.60;99.90;;;;;;5053464;28;20224;-77
2022/02/16 00:52:56;;;;;;;0.57;0.57;;;1.70;99.90;;;;;;5055348;28;20254;-77
2022/02/16 00:55:22;;;;;;;0.60;0.60;;;1.70;99.90;;;;;;5048823;28;20692;-78
2022/02/16 00:57:48;;;;;;;0.60;0.60;;;1.70;99.90;;;;;;5037416;28;20828;-78
2022/02/16 01:00:14;;;;;;;0.60;0.60;;;1.70;99.90;;;;;;5036146;28;20224;-77
2022/02/16 01:02:39;;;;;;;0.60;0.60;;;1.70;99.90;;;;;;5035691;28;20202;-77
2022/02/16 01:05:06;;;;;;;0.60;0.60;;;1.70;99.90;;;;;;5037080;28;20687;-77
2022/02/16 01:07:32;;;;;;;0.52;0.52;;;1.70;99.90;;;;;;5037431;28;20197;-77
2022/02/16 01:09:57;;;;;;;0.60;0.60;;;1.70;99.90;;;;;;5036192;28;20248;-77
2022/02/16 01:12:23;;;;;;;0.82;0.82;;;1.70;99.90;;;;;;5036198;28;20709;-78
2022/02/16 01:14:49;;;;;;;0.60;0.60;;;1.70;99.90;;;;;;5054088;28;20559;-77
2022/02/16 01:17:15;;;;;;;0.60;0.60;;;1.70;99.90;;;;;;5037163;28;20310;-77
2022/02/16 01:19:41;;;;;;;0.50;0.50;;;1.70;99.90;;;;;;5038305;28;20197;-78
2022/02/16 01:22:07;;;;;;;0.80;0.80;;;1.70;99.90;;;;;;5051862;28;20198;-77
2022/02/16 01:24:32;;;;;;;0.70;0.70;;;1.70;99.90;;;;;;5034652;28;20212;-78
2022/02/16 01:26:58;;;;;;;0.57;0.57;;;1.70;99.90;;;;;;5036950;28;20204;-77
2022/02/16 01:29:24;;;;;;;0.60;0.60;;;1.70;99.90;;;;;;5053867;28;20201;-77
2022/02/16 01:31:51;;;;;;;0.57;0.57;;;1.70;99.90;;;;;;5036870;28;20254;-77
2022/02/16 01:34:16;;;;;;;1.55;1.45;;;1.70;99.90;;;;;;5034652;28;20671;-78
2022/02/16 01:36:42;;;;;;;0.60;0.60;;;1.70;99.90;;;;;;5034160;28;20243;-78
2022/02/16 01:39:08;;;;;;;0.65;0.65;;;1.70;99.90;;;;;;5037079;28;20240;-77
2022/02/16 01:41:34;;;;;;;0.60;0.60;;;1.70;99.90;;;;;;5035258;28;20213;-77
2022/02/16 01:44:01;;;;;;;2.25;2.05;;;1.70;99.90;;;;;;5035698;28;20280;-78
2022/02/16 01:46:26;;;;;;;0.82;0.82;;;1.70;99.90;;;;;;5053229;28;20297;-77
2022/02/16 01:48:52;;;;;;;0.70;0.70;;;1.70;99.90;;;;;;5035366;28;20320;-77
2022/02/16 01:51:18;;;;;;;0.70;0.70;;;1.70;99.90;;;;;;5035944;28;20625;-80
2022/02/16 01:53:44;;;;;;;0.70;0.70;;;1.70;99.90;;;;;;5051223;28;20280;-77
2022/02/16 01:56:11;;;;;;;0.75;0.75;;;1.70;99.90;;;;;;5034691;28;20229;-77
2022/02/16 01:58:39;;;;;;;0.70;0.70;;;1.70;99.90;;;;;;5035545;28;20754;-77
2022/02/16 02:01:05;;;;;;;0.88;0.88;;;1.70;99.90;;;;;;5051024;28;20277;-78
2022/02/16 02:03:31;;;;;;;0.60;0.60;;;1.70;99.90;;;;;;5035495;28;20287;-77
2022/02/16 02:05:57;;;;;;;0.70;0.70;;;1.70;99.90;;;;;;5051713;28;20661;-77
2022/02/16 02:08:24;;;;;;;0.70;0.70;;;1.70;99.90;;;;;;5035565;28;20209;-77
2022/02/16 02:10:59;;;;;;;6.20;1.50;;;1.70;99.90;;;;;;5050861;28;20193;-77
2022/02/16 02:13:26;;;;;;;0.70;0.70;;;1.70;99.90;;;;;;5036606;28;20291;-77
2022/02/16 02:15:51;;;;;;;0.70;0.70;;;1.80;99.90;;;;;;5054927;28;20259;-77
2022/02/16 02:18:18;;;;;;;0.60;0.60;;;1.80;99.90;;;;;;5040149;28;20201;-77
2022/02/16 02:20:44;;;;;;;0.60;0.60;;;1.80;99.90;;;;;;5055325;28;20202;-77
2022/02/16 02:23:11;;;;;;;0.52;0.52;;;1.80;99.90;;;;;;5055198;28;20213;-78
2022/02/16 02:25:50;;;;;;;0.60;0.60;;;1.90;99.90;;;;;;5037992;28;20579;-78
2022/02/16 02:28:24;;;;;;;1.20;1.13;;;1.90;99.90;;;;;;5022556;28;20205;-77
2022/02/16 02:30:50;;;;;;;0.68;0.68;;;1.90;99.90;;;;;;5038609;28;20208;-77
2022/02/16 02:33:16;;;;;;;0.70;0.70;;;1.90;99.90;;;;;;5021584;28;20248;-77
2022/02/16 02:35:42;;;;;;;1.48;1.38;;;1.90;99.90;;;;;;5038208;28;20201;-76
2022/02/16 02:38:08;;;;;;;0.68;0.68;;;2.00;99.90;;;;;;5039306;28;20833;-78
2022/02/16 02:40:34;;;;;;;0.75;0.75;;;1.90;99.90;;;;;;5039707;28;20308;-76
2022/02/16 02:43:00;;;;;;;0.88;0.88;;;1.90;99.90;;;;;;5039343;28;20197;-77
2022/02/16 02:45:26;;;;;;;0.70;0.70;;;2.00;99.90;;;;;;5054887;28;20208;-77
2022/02/16 02:47:52;;;;;;;0.60;0.60;;;1.90;99.90;;;;;;5039335;28;20279;-78
2022/02/16 02:50:17;;;;;;;0.60;0.60;;;2.00;99.90;;;;;;5057555;28;20216;-77
2022/02/16 02:52:43;;;;;;;0.60;0.60;;;2.00;99.90;;;;;;5056426;28;20213;-76
2022/02/16 02:55:11;;;;;;;0.70;0.70;;;2.00;99.90;;;;;;5036501;28;20202;-77
2022/02/16 02:57:38;;;;;;;0.70;0.70;;;2.10;99.90;;;;;;5050594;28;20201;-77
2022/02/16 03:00:07;;;;;;;0.70;0.70;;;2.10;99.90;;;;;;5058122;28;20198;-77
2022/02/16 03:02:33;;;;;;;0.60;0.60;;;2.10;99.90;;;;;;5036208;28;20644;-76
2022/02/16 03:04:59;;;;;;;0.50;0.50;;;2.10;99.90;;;;;;5056543;28;20251;-77
2022/02/16 03:07:24;;;;;;;0.60;0.60;;;2.10;99.90;;;;;;5057626;28;20225;-77
2022/02/16 03:09:50;;;;;;;0.52;0.52;;;2.10;99.90;;;;;;5056616;28;20240;-77
2022/02/16 03:12:16;;;;;;;0.50;0.50;;;2.00;99.90;;;;;;5057800;28;20202;-76
2022/02/16 03:14:42;;;;;;;0.90;0.90;;;2.10;99.90;;;;;;5041003;28;20198;-77
2022/02/16 03:17:07;;;;;;;0.65;0.65;;;2.00;99.90;;;;;;5071590;28;20578;-77
2022/02/16 03:19:33;;;;;;;0.70;0.70;;;2.00;99.90;;;;;;5037721;28;20202;-76
2022/02/16 03:21:59;;;;;;;0.60;0.60;;;2.00;99.90;;;;;;5057308;28;20216;-77
2022/02/16 03:24:24;;;;;;;0.68;0.68;;;1.90;99.90;;;;;;5038474;28;20612;-77
2022/02/16 03:26:50;;;;;;;0.50;0.50;;;2.00;99.90;;;;;;5036958;28;20209;-78
2022/02/16 03:29:16;;;;;;;0.70;0.70;;;1.90;99.90;;;;;;5041199;28;20205;-77
2022/02/16 03:31:42;;;;;;;0.60;0.60;;;1.90;99.90;;;;;;5038782;28;20271;-76
2022/02/16 03:34:08;;;;;;;0.50;0.50;;;1.80;99.90;;;;;;5069561;28;20204;-77
2022/02/16 03:36:34;;;;;;;0.65;0.65;;;1.80;99.90;;;;;;5042583;28;20205;-77
2022/02/16 03:39:00;;;;;;;0.60;0.60;;;1.80;99.90;;;;;;5051795;28;20259;-79
2022/02/16 03:41:25;;;;;;;0.70;0.70;;;1.80;99.90;;;;;;5043559;28;20212;-79
2022/02/16 03:43:51;;;;;;;0.60;0.60;;;1.70;99.90;;;;;;5034565;28;20303;-78
2022/02/16 03:46:17;;;;;;;0.50;0.50;;;1.80;99.90;;;;;;5040258;28;20240;-77
2022/02/16 03:48:42;;;;;;;0.63;0.63;;;1.70;99.90;;;;;;5055839;28;20229;-77
2022/02/16 03:51:08;;;;;;;0.63;0.63;;;1.70;99.90;;;;;;5038594;28;20708;-77
2022/02/16 03:53:34;;;;;;;0.60;0.60;;;1.80;99.90;;;;;;5037546;28;20576;-77
2022/02/16 03:56:01;;;;;;;0.43;0.43;;;1.70;99.90;;;;;;5036110;28;20693;-78
2022/02/16 03:58:27;;;;;;;0.60;0.60;;;1.70;99.90;;;;;;5038798;28;20204;-77
2022/02/16 04:00:52;;;;;;;0.60;0.60;;;1.80;99.90;;;;;;5053940;28;20608;-78
2022/02/16 04:03:18;;;;;;;0.70;0.70;;;1.80;99.90;;;;;;5053631;28;20204;-76
2022/02/16 04:05:44;;;;;;;0.73;0.73;;;1.70;99.90;;;;;;5037519;28;20210;-77
2022/02/16 04:08:10;;;;;;;0.60;0.60;;;1.70;99.90;;;;;;5037087;28;20260;-77
2022/02/16 04:10:36;;;;;;;0.77;0.77;;;1.70;99.90;;;;;;5037541;28;20233;-77
2022/02/16 04:13:02;;;;;;;0.55;0.55;;;1.70;99.90;;;;;;5038349;28;20228;-78
2022/02/16 04:15:28;;;;;;;0.68;0.68;;;1.70;99.90;;;;;;5035583;28;20536;-78
2022/02/16 04:17:54;;;;;;;0.55;0.55;;;1.70;99.90;;;;;;5056265;28;20212;-77
2022/02/16 04:20:19;;;;;;;0.60;0.60;;;1.70;99.90;;;;;;5056069;28;20205;-79
2022/02/16 04:22:47;;;;;;;0.55;0.55;;;1.80;99.90;;;;;;5037962;28;20213;-77
2022/02/16 04:25:14;;;;;;;0.63;0.63;;;1.70;99.90;;;;;;5035491;28;20212;-77
2022/02/16 04:27:40;;;;;;;0.60;0.60;;;1.70;99.90;;;;;;5036966;28;20260;-78
2022/02/16 04:30:08;;;;;;;0.60;0.60;;;1.70;99.90;;;;;;5052475;28;20233;-77
2022/02/16 04:32:34;;;;;;;0.50;0.50;;;1.70;99.90;;;;;;5037190;28;20209;-77
2022/02/16 04:35:00;;;;;;;0.55;0.55;;;1.70;99.90;;;;;;5053548;28;20201;-78
2022/02/16 04:37:26;;;;;;;0.68;0.68;;;1.70;99.90;;;;;;5053739;28;20551;-78
2022/02/16 04:39:52;;;;;;;0.60;0.60;;;1.70;99.90;;;;;;5037276;28;20208;-77
2022/02/16 04:42:18;;;;;;;0.70;0.70;;;1.70;99.90;;;;;;5035397;28;20209;-78
2022/02/16 04:44:44;;;;;;;0.73;0.73;;;1.70;99.90;;;;;;5055764;28;20542;-78
2022/02/16 04:47:10;;;;;;;0.65;0.65;;;1.70;99.90;;;;;;5035901;28;20211;-77
2022/02/16 04:49:35;;;;;;;0.60;0.60;;;1.80;99.90;;;;;;5029936;28;20316;-77
2022/02/16 04:52:02;;;;;;;0.50;0.50;;;1.70;99.90;;;;;;5039467;28;20197;-77
2022/02/16 04:54:28;;;;;;;0.50;0.50;;;1.70;99.90;;;;;;5029933;28;20201;-78
2022/02/16 04:56:53;;;;;;;1.50;1.35;;;1.70;99.90;;;;;;5032851;28;20201;-78
2022/02/16 04:59:19;;;;;;;0.60;0.60;;;1.70;99.90;;;;;;5032700;28;20202;-78
2022/02/16 05:01:45;;;;;;;0.98;0.98;;;1.70;99.90;;;;;;5035095;28;20194;-80
2022/02/16 05:04:11;;;;;;;0.60;0.60;;;1.80;99.90;;;;;;5052001;28;20197;-77
2022/02/16 05:06:38;;;;;;;0.70;0.70;;;1.80;99.90;;;;;;5034639;28;20198;-77
2022/02/16 05:09:05;;;;;;;0.63;0.63;;;1.80;99.90;;;;;;5033428;28;20204;-78
2022/02/16 05:11:31;;;;;;;0.70;0.70;;;1.80;99.90;;;;;;5018850;28;20206;-77
2022/02/16 05:13:56;;;;;;;0.60;0.60;;;1.80;99.90;;;;;;5051373;28;20212;-78
2022/02/16 05:16:22;;;;;;;0.60;0.60;;;1.80;99.90;;;;;;5032277;28;20304;-77
2022/02/16 05:18:48;;;;;;;0.68;0.68;;;1.80;99.90;;;;;;5050637;28;20240;-77
2022/02/16 05:21:14;;;;;;;0.55;0.55;;;1.80;99.90;;;;;;5020108;28;20203;-77
2022/02/16 05:23:40;;;;;;;0.60;0.60;;;1.80;99.90;;;;;;5045752;28;20217;-78
2022/02/16 05:26:06;;;;;;;0.70;0.70;;;1.80;99.90;;;;;;5051247;28;20276;-77
2022/02/16 05:28:32;;;;;;;0.68;0.68;;;1.80;99.90;;;;;;5050222;28;20628;-78
2022/02/16 05:30:57;;;;;;;0.60;0.60;;;1.80;99.90;;;;;;5025991;28;20206;-78
2022/02/16 05:33:23;;;;;;;0.60;0.60;;;1.80;99.90;;;;;;5042785;28;20205;-79
2022/02/16 05:35:49;;;;;;;0.60;0.60;;;1.80;99.90;;;;;;5045535;28;20214;-78
2022/02/16 05:38:15;;;;;;;0.50;0.50;;;1.80;99.90;;;;;;5039661;28;20262;-78
2022/02/16 05:40:43;;;;;;;0.70;0.70;;;1.80;99.90;;;;;;5028531;28;20578;-78
2022/02/16 05:43:10;;;;;;;0.60;0.60;;;1.80;99.90;;;;;;5020746;28;20210;-78
2022/02/16 05:45:37;;;;;;;0.68;0.68;;;1.80;99.90;;;;;;5032878;28;20626;-78
2022/02/16 05:48:04;;;;;;;0.70;0.70;;;1.80;99.90;;;;;;5031272;28;20217;-78
2022/02/16 05:50:30;;;;;;;0.73;0.73;;;1.80;99.90;;;;;;5032995;28;20206;-78
2022/02/16 05:52:55;;;;;;;0.60;0.60;;;1.90;99.90;;;;;;5032760;28;20206;-79
2022/02/16 05:55:21;;;;;;;0.60;0.60;;;1.90;99.90;;;;;;5030595;28;20195;-79
2022/02/16 05:57:46;;;;;;;0.73;0.73;;;1.90;99.90;;;;;;5032695;28;20202;-78
2022/02/16 06:00:13;;;;;;;0.85;0.85;;;1.90;99.90;;;;;;5033549;28;20606;-78
2022/02/16 06:02:39;;;;;;;0.57;0.57;;;1.90;99.90;;;;;;5032850;28;20210;-78
2022/02/16 06:05:06;;;;;;;0.57;0.57;;;1.90;99.90;;;;;;5034842;28;20271;-78
2022/02/16 06:07:31;;;;;;;0.60;0.60;;;2.00;99.90;;;;;;5035473;28;20229;-80
2022/02/16 06:09:57;;;;;;;0.65;0.65;;;1.90;99.90;;;;;;5047527;28;20229;-78
2022/02/16 06:12:23;;;;;;;0.50;0.50;;;1.90;99.90;;;;;;5031711;28;20202;-80
2022/02/16 06:14:48;;;;;;;0.70;0.70;;;1.90;99.90;;;;;;5031191;28;20202;-78
2022/02/16 06:17:14;;;;;;;0.70;0.70;;;1.90;99.90;;;;;;5031853;28;20237;-80
2022/02/16 06:19:40;;;;;;;0.82;0.82;;;1.90;99.90;;;;;;5033840;28;20259;-78
2022/02/16 06:22:06;;;;;;;0.70;0.70;;;1.90;99.90;;;;;;5031970;28;20194;-78
2022/02/16 06:24:31;;;;;;;0.50;0.50;;;1.90;99.90;;;;;;5034251;28;20202;-79
2022/02/16 06:26:57;;;;;;;0.50;0.50;;;2.00;99.90;;;;;;5022038;28;20297;-79
2022/02/16 06:29:23;;;;;;;0.70;0.70;;;2.00;99.90;;;;;;5030167;28;20217;-78
2022/02/16 06:31:49;;;;;;;1.08;0.95;;;2.00;99.90;;;;;;5043272;28;20251;-78
2022/02/16 06:34:15;;;;;;;0.52;0.52;;;2.00;99.90;;;;;;5044760;28;20289;-79
2022/02/16 06:36:41;;;;;;;0.60;0.60;;;2.00;99.90;;;;;;5031114;28;20218;-79
2022/02/16 06:39:06;;;;;;;0.70;0.70;;;2.00;99.90;;;;;;5032392;28;20194;-79
2022/02/16 06:41:32;;;;;;;0.70;0.70;;;1.90;99.90;;;;;;5030513;28;20202;-79
2022/02/16 06:43:58;;;;;;;0.60;0.60;;;1.90;99.90;;;;;;5015405;28;20207;-79
2022/02/16 06:46:23;;;;;;;0.70;0.70;;;2.00;99.90;;;;;;5030667;28;20202;-80
2022/02/16 06:48:50;;;;;;;0.50;0.50;;;2.00;99.90;;;;;;5031114;28;20309;-79
2022/02/16 06:51:17;;;;;;;0.70;0.70;;;2.00;99.90;;;;;;5031261;28;20202;-79
2022/02/16 06:53:43;;;;;;;1.33;1.25;;;2.00;99.90;;;;;;5034724;28;20198;-78
2022/02/16 06:56:09;;;;;;;0.60;0.60;;;2.00;99.90;;;;;;5030649;28;20225;-78
2022/02/16 06:58:34;;;;;;;2.15;1.95;;;2.00;99.90;;;;;;5030872;28;20199;-79
2022/02/16 07:01:00;;;;;;;0.65;0.65;;;2.00;99.90;;;;;;5030600;28;20210;-80
2022/02/16 07:03:26;;;;;;;0.70;0.70;;;2.00;99.90;;;;;;5034050;28;20227;-79
2022/02/16 07:05:51;;;;;;;0.70;0.70;;;2.10;99.90;;;;;;5047803;28;20202;-79
2022/02/16 07:08:17;;;;;;;0.50;0.50;;;2.00;99.90;;;;;;5034480;28;20210;-79
2022/02/16 07:10:44;;;;;;;0.60;0.60;;;2.10;99.90;;;;;;5039539;28;20799;-79
2022/02/16 07:13:09;;;;;;;0.55;0.55;;;2.10;99.90;;;;;;5043049;28;20237;-79
2022/02/16 07:15:35;;;;;;;0.60;0.60;;;2.10;99.90;;;;;;5037779;28;20290;-78
2022/02/16 07:18:01;;;;;;;4.57;1.08;;;2.10;99.90;;;;;;5034468;28;20729;-80
2022/02/16 07:20:32;;;;;;;0.50;0.50;;;2.10;99.90;;;;;;5033846;28;20681;-79
2022/02/16 07:22:58;;;;;;;2.47;1.60;;;2.10;99.90;;;;;;5046325;28;20550;-78
2022/02/16 07:25:27;;;;;;;0.70;0.70;;;2.10;99.90;;;;;;5045399;28;20198;-79
2022/02/16 07:27:55;;;;;;;0.60;0.60;;;2.10;99.90;;;;;;5017857;28;20221;-78
2022/02/16 07:30:23;;;;;;;0.50;0.50;;;2.10;99.90;;;;;;5021169;28;20201;-79
2022/02/16 07:32:52;;;;;;;0.50;0.50;;;2.10;99.90;;;;;;5033493;28;20209;-79
2022/02/16 07:35:18;;;;;;;0.50;0.50;;;2.10;99.90;;;;;;5035466;28;20296;-79
2022/02/16 07:37:44;;;;;;;0.60;0.60;;;2.20;99.90;;;;;;5053018;28;20296;-79
2022/02/16 07:40:10;;;;;;;0.70;0.70;;;2.10;99.90;;;;;;5033265;28;20194;-79
2022/02/16 07:42:36;;;;;;;0.70;0.70;;;2.10;99.90;;;;;;5036418;28;20672;-79
2022/02/16 07:45:03;;;;;;;0.70;0.70;;;2.10;99.90;;;;;;5035861;28;20209;-79
2022/02/16 07:47:29;;;;;;;0.60;0.60;;;2.10;99.90;;;;;;5036726;28;20248;-79
2022/02/16 07:49:57;;;;;;;8.30;3.83;;;2.00;99.90;;;;;;5049637;28;20257;-79
2022/02/16 07:52:23;;;;;;;0.63;0.63;;;2.00;99.90;;;;;;5033368;28;20304;-79
2022/02/16 07:54:49;;;;;;;0.60;0.60;;;2.10;99.90;;;;;;5036187;28;20612;-79
2022/02/16 07:57:14;;;;;;;0.60;0.60;;;2.10;99.90;;;;;;5033728;28;20209;-79
2022/02/16 07:59:40;;;;;;;0.95;0.77;;;2.10;99.90;;;;;;5034155;28;20579;-79
2022/02/16 08:02:07;;;;;;;0.80;0.80;;;2.20;99.90;;;;;;5033996;28;20202;-79
2022/02/16 08:04:32;;;;;;;0.60;0.60;;;2.30;99.90;;;;;;5029795;28;20670;-79
2022/02/16 08:07:00;;;;;;;25.58;1.73;;;2.40;99.90;;;;;;5034343;28;20340;-78
2022/02/16 08:09:26;;;;;;;0.63;0.63;;;2.40;99.90;;;;;;5034722;28;20206;-77
2022/02/16 08:11:52;;;;;;;2.97;2.55;;;2.50;99.90;;;;;;5032212;28;20210;-78
2022/02/16 08:14:17;;;;;;;0.75;0.75;;;2.50;99.90;;;;;;5033443;28;20570;-79
2022/02/16 08:16:43;;;;;;;0.60;0.60;;;2.50;99.90;;;;;;5032874;28;20567;-78
2022/02/16 08:19:11;;;;;;;0.60;0.60;;;2.50;99.90;;;;;;5040265;28;20213;-78
2022/02/16 08:21:38;;;;;;;1.92;1.58;;;2.50;99.90;;;;;;5046782;28;20194;-79
2022/02/16 08:24:04;;;;;;;0.55;0.55;;;2.50;99.90;;;;;;5033009;28;20206;-79
2022/02/16 08:26:30;;;;;;;0.60;0.60;;;2.50;99.90;;;;;;5033995;28;20697;-78
2022/02/16 08:28:56;;;;;;;0.77;0.77;;;2.40;99.90;;;;;;5031450;28;20206;-79
2022/02/16 08:31:22;;;;;;;0.60;0.60;;;2.50;99.90;;;;;;5017354;28;20620;-80
2022/02/16 08:33:48;;;;;;;0.60;0.60;;;2.50;99.90;;;;;;5036193;28;20197;-78
2022/02/16 08:36:15;;;;;;;0.80;0.80;;;2.40;99.90;;;;;;5032521;28;20206;-79
2022/02/16 08:38:41;;;;;;;0.90;0.90;;;2.40;99.90;;;;;;5032777;28;20202;-79
2022/02/16 08:41:13;;;;;;;0.60;0.60;;;2.40;99.90;;;;;;5034484;28;20757;-81
2022/02/16 08:43:39;;;;;;;0.50;0.50;;;2.40;99.90;;;;;;5032332;28;20666;-79
2022/02/16 08:46:05;;;;;;;0.60;0.60;;;2.40;99.90;;;;;;5033681;28;20213;-79
2022/02/16 08:49:00;;;;;;;1.30;0.90;;;2.50;99.90;;;;;;5031633;28;20588;-79
2022/02/16 08:51:31;;;;;;;0.50;0.50;;;2.40;99.90;;;;;;5032003;28;20293;-79
2022/02/16 08:54:02;;;;;;;0.60;0.60;;;2.40;99.90;;;;;;5031355;28;20573;-79
2022/02/16 08:56:29;;;;;;;0.57;0.57;;;2.50;99.90;;;;;;5033335;28;20201;-78
2022/02/16 08:58:57;;;;;;;0.82;0.82;;;2.50;99.90;;;;;;5018348;28;20689;-80
2022/02/16 09:01:31;;;;;;;0.60;0.60;;;2.50;99.90;;;;;;5050197;28;20202;-80
2022/02/16 09:04:03;;;;;;;0.50;0.50;;;2.50;99.90;;;;;;5032299;28;20678;-80
2022/02/16 09:06:33;;;;;;;0.60;0.60;;;2.50;99.90;;;;;;5014445;28;20206;-79
2022/02/16 09:09:04;;;;;;;1.17;1.13;;;2.50;99.90;;;;;;5016216;28;20202;-79
2022/02/16 09:11:31;;;;;;;0.70;0.70;;;2.50;99.90;;;;;;5016749;28;20676;-79
2022/02/16 09:14:00;;;;;;;2.85;1.20;;;2.60;99.90;;;;;;5031257;28;20260;-79
2022/02/16 09:16:28;;;;;;;0.60;0.60;;;2.60;99.90;;;;;;5030806;28;20674;-81
2022/02/16 09:18:54;;;;;;;0.60;0.60;;;2.60;99.90;;;;;;5033711;28;20669;-79
2022/02/16 09:21:20;;;;;;;2.90;2.05;;;2.70;99.90;;;;;;5031854;28;20214;-81
2022/02/16 09:23:46;;;;;;;0.60;0.60;;;2.70;99.90;;;;;;5018922;28;20336;-79
2022/02/16 09:26:12;;;;;;;0.68;0.68;;;2.70;99.90;;;;;;5035278;28;20229;-79
2022/02/16 09:28:37;;;;;;;0.70;0.70;;;2.70;99.90;;;;;;5031891;28;20218;-79
2022/02/16 09:31:04;;;;;;;1.73;1.60;;;2.70;99.90;;;;;;5035938;28;20388;-79
2022/02/16 09:33:30;;;;;;;0.60;0.60;;;2.80;99.90;;;;;;5029994;28;20230;-78
2022/02/16 09:35:58;;;;;;;0.70;0.70;;;2.90;99.90;;;;;;5045476;28;20291;-79
2022/02/16 09:38:24;;;;;;;0.68;0.68;;;2.90;99.90;;;;;;5030515;28;20238;-80
2022/02/16 09:40:51;;;;;;;0.80;0.80;;;3.00;99.90;;;;;;5035274;28;20251;-79
2022/02/16 09:43:22;;;;;;;0.77;0.77;;;3.10;99.90;;;;;;5048394;28;20226;-79
2022/02/16 09:45:53;;;;;;;0.70;0.70;;;3.10;99.90;;;;;;5033392;28;20209;-79
2022/02/16 09:48:23;;;;;;;0.50;0.50;;;3.20;99.90;;;;;;5036986;28;20225;-79
2022/02/16 09:50:52;;;;;;;0.47;0.47;;;3.30;99.90;;;;;;5035533;28;20205;-79
2022/02/16 09:53:18;;;;;;;0.60;0.60;;;3.30;99.90;;;;;;5033567;28;20217;-80
2022/02/16 09:55:44;;;;;;;0.60;0.60;;;3.40;99.90;;;;;;5036522;28;20213;-79
2022/02/16 09:58:10;;;;;;;0.68;0.68;;;3.60;99.90;;;;;;5035408;28;20205;-79
2022/02/16 10:00:36;;;;;;;0.60;0.60;;;3.60;99.90;;;;;;5031275;28;20230;-79
2022/02/16 10:03:13;;;;;;;0.60;0.60;;;3.70;99.90;;;;;;5026470;28;20205;-79
2022/02/16 10:05:39;;;;;;;0.70;0.70;;;3.70;99.90;;;;;;5028676;28;20216;-79
2022/02/16 10:08:06;;;;;;;0.60;0.60;;;3.70;99.90;;;;;;5036664;28;20197;-79
2022/02/16 10:10:32;;;;;;;0.65;0.65;;;3.80;99.90;;;;;;5039313;28;20204;-79
2022/02/16 10:13:02;;;;;;;0.60;0.60;;;3.80;99.90;;;;;;5037690;28;20649;-80
2022/02/16 10:15:38;;;;;;;0.70;0.70;;;3.80;99.90;;;;;;5035317;28;20263;-79
2022/02/16 10:18:14;;;;;;;0.57;0.57;;;3.80;99.90;;;;;;5036731;28;20193;-78
2022/02/16 10:20:44;;;;;;;0.60;0.60;;;3.70;99.90;;;;;;5047058;28;20204;-79
2022/02/16 10:23:10;;;;;;;0.82;0.82;;;3.70;99.90;;;;;;5034567;28;20205;-79
2022/02/16 10:25:36;;;;;;;0.50;0.50;;;3.60;99.90;;;;;;5036473;28;20625;-80
2022/02/16 10:28:12;;;;;;;0.60;0.60;;;3.60;99.90;;;;;;5035066;28;20276;-81
2022/02/16 10:30:53;;;;;;;0.60;0.60;;;3.60;99.90;;;;;;5035886;28;20691;-80
2022/02/16 10:33:22;;;;;;;0.60;0.60;;;3.50;99.90;;;;;;5037700;28;20251;-80
2022/02/16 10:35:50;;;;;;;0.60;0.60;;;3.60;99.90;;;;;;5034277;28;20202;-80
2022/02/16 10:38:16;;;;;;;0.55;0.55;;;3.50;99.90;;;;;;5040570;28;20213;-80
2022/02/16 10:40:42;;;;;;;1.08;1.08;;;3.50;99.90;;;;;;5038536;28;20194;-80
2022/02/16 10:43:08;;;;;;;0.70;0.70;;;3.50;99.90;;;;;;5056079;28;20189;-80
2022/02/16 10:45:45;;;;;;;8.27;2.17;;;3.40;99.90;;;;;;5038780;28;20197;-79
2022/02/16 10:48:11;;;;;;;0.60;0.60;;;3.40;99.90;;;;;;5038970;28;20200;-80
2022/02/16 10:50:44;;;;;;;0.85;0.85;;;3.40;99.90;;;;;;5054720;28;20204;-79
2022/02/16 10:53:09;;;;;;;0.60;0.60;;;3.40;99.90;;;;;;5020859;28;20206;-80
2022/02/16 10:55:47;;;;;;;0.60;0.60;;;3.40;99.90;;;;;;5056629;28;20201;-83
2022/02/16 10:58:27;;;;;;;0.65;0.65;;;3.40;99.90;;;;;;5037735;28;20675;-80
2022/02/16 11:00:57;;;;;;;0.75;0.75;;;3.40;99.90;;;;;;5037004;28;20251;-80
2022/02/16 11:03:36;;;;;;;0.60;0.60;;;3.40;99.90;;;;;;5055958;28;20643;-81
2022/02/16 11:06:07;;;;;;;0.63;0.63;;;3.40;99.90;;;;;;5035878;28;20614;-80
2022/02/16 11:08:33;;;;;;;0.50;0.50;;;3.40;99.90;;;;;;5036059;28;20216;-80
2022/02/16 11:11:06;;;;;;;0.60;0.60;;;3.40;99.90;;;;;;5035820;28;20256;-84
2022/02/16 11:13:59;;;;;;;0.75;0.75;;;3.40;99.90;;;;;;5052077;28;20205;-80
2022/02/16 11:16:25;;;;;;;0.70;0.70;;;3.50;99.90;;;;;;5035787;28;20211;-81
2022/02/16 11:19:00;;;;;;;0.60;0.60;;;3.50;99.90;;;;;;5018511;28;20252;-81
2022/02/16 11:21:29;;;;;;;0.60;0.60;;;3.60;99.90;;;;;;5020713;28;20686;-81
2022/02/16 11:23:59;;;;;;;0.60;0.60;;;3.70;99.90;;;;;;5054349;28;20228;-80
2022/02/16 11:26:43;;;;;;;0.57;0.57;;;3.70;99.90;;;;;;5019347;28;20264;-80
2022/02/16 11:29:27;;;;;;;0.70;0.70;;;3.80;99.90;;;;;;5020934;28;20746;-80
2022/02/16 11:32:15;;;;;;;0.90;0.90;;;3.90;99.90;;;;;;5051644;28;20228;-79
2022/02/16 11:34:45;;;;;;;0.50;0.50;;;3.90;99.90;;;;;;5035096;28;20201;-79
2022/02/16 11:37:11;;;;;;;0.60;0.60;;;4.00;99.90;;;;;;5044359;28;20229;-80
2022/02/16 11:39:49;;;;;;;0.80;0.80;;;4.10;99.90;;;;;;5051727;28;20572;-79
2022/02/16 11:42:35;;;;;;;0.60;0.60;;;4.10;99.90;;;;;;5055678;28;20197;-80
2022/02/16 11:45:05;;;;;;;0.50;0.50;;;4.30;99.90;;;;;;5038076;28;20197;-80
2022/02/16 11:47:34;;;;;;;0.70;0.70;;;4.40;99.90;;;;;;5038247;28;20212;-80
2022/02/16 11:50:08;;;;;;;0.70;0.70;;;4.60;99.90;;;;;;5035966;28;20253;-81
2022/02/16 11:52:49;;;;;;;0.60;0.60;;;4.60;99.90;;;;;;5032794;28;20765;-80
2022/02/16 11:55:37;;;;;;;0.70;0.70;;;4.70;99.90;;;;;;5035284;28;20212;-80
2022/02/16 11:58:04;;;;;;;0.60;0.60;;;4.70;99.90;;;;;;5044144;28;20214;-81
2022/02/16 12:00:39;;;;;;;0.50;0.50;;;4.70;99.90;;;;;;5018729;28;20709;-80
2022/02/16 12:03:07;;;;;;;0.70;0.70;;;4.90;99.90;;;;;;5029221;28;20235;-80
2022/02/16 12:05:59;;;;;;;0.90;0.90;;;5.10;99.90;;;;;;5032156;28;20241;-80
2022/02/16 12:08:39;;;;;;;0.70;0.70;;;5.00;99.90;;;;;;5033123;28;20206;-81
2022/02/16 12:11:33;;;;;;;0.70;0.70;;;5.00;99.90;;;;;;5032347;28;20217;-80
2022/02/16 12:14:02;;;;;;;0.70;0.70;;;4.90;99.90;;;;;;5032259;28;20670;-81
2022/02/16 12:16:29;;;;;;;0.77;0.77;;;4.80;99.90;;;;;;5035268;28;20267;-81
2022/02/16 12:18:56;;;;;;;1.20;1.17;;;4.70;99.90;;;;;;5031141;28;20244;-80
2022/02/16 12:21:50;;;;;;;1.92;1.45;;;4.60;99.90;;;;;;5031805;28;20213;-81
2022/02/16 12:24:24;;;;;;;0.60;0.60;;;4.60;99.90;;;;;;5026643;28;20296;-80
2022/02/16 12:26:59;;;;;;;0.60;0.60;;;4.50;99.90;;;;;;5038970;28;20590;-80
2022/02/16 12:29:35;;;;;;;16.40;1.80;;;4.60;99.90;;;;;;5035651;28;20253;-81
2022/02/16 12:32:01;;;;;;;1.10;1.10;;;4.60;99.90;;;;;;5031270;28;20213;-80
2022/02/16 12:34:34;;;;;;;3.38;1.38;;;4.80;99.90;;;;;;5030545;28;20216;-80
2022/02/16 12:37:03;;;;;;;0.90;0.90;;;4.90;99.90;;;;;;5031597;28;20827;-80
2022/02/16 12:39:36;;;;;;;0.65;0.65;;;4.90;99.90;;;;;;5031900;28;20198;-80
2022/02/16 12:42:09;;;;;;;0.70;0.70;;;5.00;99.90;;;;;;5031939;28;20205;-80
2022/02/16 12:44:44;;;;;;;0.60;0.60;;;4.80;99.90;;;;;;5030888;28;20581;-81
2022/02/16 12:47:12;;;;;;;0.60;0.60;;;4.80;99.90;;;;;;5031661;28;20681;-81
2022/02/16 12:49:42;;;;;;;0.70;0.70;;;4.90;99.90;;;;;;5031229;28;20234;-80
2022/02/16 12:52:08;;;;;;;0.65;0.65;;;5.00;99.90;;;;;;5034615;28;20209;-80
2022/02/16 12:54:36;;;;;;;0.70;0.70;;;5.20;99.90;;;;;;5029677;28;20210;-80
2022/02/16 12:57:05;;;;;;;2.00;1.85;;;5.30;99.90;;;;;;5034527;28;20213;-80
2022/02/16 12:59:42;;;;;;;0.70;0.70;;;5.40;99.90;;;;;;5028966;28;20677;-81
2022/02/16 13:02:27;;;;;;;1.25;1.23;;;5.30;99.90;;;;;;5031833;28;20792;-80